sensor_id;sensor_type;location;lat;lon;timestamp;P1;durP1;ratioP1;P2;durP2;ratioP2
65244;SDS011;51846;48.692;2.382;2023-10-31T00:01:05;6.03;;;2.42;;
65244;SDS011;51846;48.692;2.382;2023-10-31T00:03:31;6.18;;;2.40;;
65244;SDS011;51846;48.692;2.382;2023-10-31T00:05:59;9.48;;;4.00;;
65244;SDS011;51846;48.692;2.382;2023-10-31T00:08:25;9.95;;;3.10;;
65244;SDS011;51846;48.692;2.382;2023-10-31T00:10:50;7.80;;;2.70;;
65244;SDS011;51846;48.692;2.382;2023-10-31T00:13:15;7.90;;;3.00;;
65244;SDS011;51846;48.692;2.382;2023-10-31T00:15:41;7.95;;;2.97;;
65244;SDS011;51846;48.692;2.382;2023-10-31T00:18:06;10.23;;;3.47;;
65244;SDS011;51846;48.692;2.382;2023-10-31T00:20:32;12.52;;;5.40;;
65244;SDS011;51846;48.692;2.382;2023-10-31T00:22:57;17.13;;;7.38;;
65244;SDS011;51846;48.692;2.382;2023-10-31T00:25:23;13.27;;;8.07;;
65244;SDS011;51846;48.692;2.382;2023-10-31T00:27:48;13.80;;;5.60;;
65244;SDS011;51846;48.692;2.382;2023-10-31T00:30:13;13.75;;;5.60;;
65244;SDS011;51846;48.692;2.382;2023-10-31T00:32:39;14.98;;;6.30;;
65244;SDS011;51846;48.692;2.382;2023-10-31T00:35:04;27.17;;;13.68;;
65244;SDS011;51846;48.692;2.382;2023-10-31T00:37:30;31.25;;;16.85;;
65244;SDS011;51846;48.692;2.382;2023-10-31T00:39:55;30.20;;;17.35;;
65244;SDS011;51846;48.692;2.382;2023-10-31T00:42:21;30.98;;;16.48;;
65244;SDS011;51846;48.692;2.382;2023-10-31T00:44:46;32.47;;;14.63;;
65244;SDS011;51846;48.692;2.382;2023-10-31T00:47:12;24.58;;;12.40;;
65244;SDS011;51846;48.692;2.382;2023-10-31T00:49:37;22.42;;;9.55;;
65244;SDS011;51846;48.692;2.382;2023-10-31T00:52:03;15.10;;;7.40;;
65244;SDS011;51846;48.692;2.382;2023-10-31T00:54:28;12.27;;;6.50;;
65244;SDS011;51846;48.692;2.382;2023-10-31T00:56:54;14.43;;;6.13;;
65244;SDS011;51846;48.692;2.382;2023-10-31T00:59:19;10.57;;;5.38;;
65244;SDS011;51846;48.692;2.382;2023-10-31T01:01:44;9.98;;;4.80;;
65244;SDS011;51846;48.692;2.382;2023-10-31T01:04:10;12.18;;;4.80;;
65244;SDS011;51846;48.692;2.382;2023-10-31T01:06:41;9.57;;;4.82;;
65244;SDS011;51846;48.692;2.382;2023-10-31T01:09:08;13.07;;;5.70;;
65244;SDS011;51846;48.692;2.382;2023-10-31T01:11:34;19.95;;;9.82;;
65244;SDS011;51846;48.692;2.382;2023-10-31T01:13:59;17.10;;;9.45;;
65244;SDS011;51846;48.692;2.382;2023-10-31T01:16:25;13.15;;;7.82;;
65244;SDS011;51846;48.692;2.382;2023-10-31T01:18:50;14.10;;;8.73;;
65244;SDS011;51846;48.692;2.382;2023-10-31T01:21:15;14.00;;;8.45;;
65244;SDS011;51846;48.692;2.382;2023-10-31T01:23:41;12.05;;;7.35;;
65244;SDS011;51846;48.692;2.382;2023-10-31T01:26:06;11.98;;;6.10;;
65244;SDS011;51846;48.692;2.382;2023-10-31T01:28:31;11.80;;;6.18;;
65244;SDS011;51846;48.692;2.382;2023-10-31T01:30:57;8.82;;;5.35;;
65244;SDS011;51846;48.692;2.382;2023-10-31T01:33:22;10.55;;;5.55;;
65244;SDS011;51846;48.692;2.382;2023-10-31T01:35:47;11.52;;;4.85;;
65244;SDS011;51846;48.692;2.382;2023-10-31T01:38:13;9.85;;;4.43;;
65244;SDS011;51846;48.692;2.382;2023-10-31T01:40:39;14.10;;;8.32;;
65244;SDS011;51846;48.692;2.382;2023-10-31T01:43:04;26.23;;;14.75;;
65244;SDS011;51846;48.692;2.382;2023-10-31T01:45:30;24.92;;;14.95;;
65244;SDS011;51846;48.692;2.382;2023-10-31T01:47:55;29.38;;;14.90;;
65244;SDS011;51846;48.692;2.382;2023-10-31T01:50:20;22.23;;;11.32;;
65244;SDS011;51846;48.692;2.382;2023-10-31T01:52:46;20.40;;;11.27;;
65244;SDS011;51846;48.692;2.382;2023-10-31T01:55:11;20.10;;;10.95;;
65244;SDS011;51846;48.692;2.382;2023-10-31T01:57:37;20.13;;;9.65;;
65244;SDS011;51846;48.692;2.382;2023-10-31T02:00:03;23.45;;;11.40;;
65244;SDS011;51846;48.692;2.382;2023-10-31T02:02:30;21.75;;;12.07;;
65244;SDS011;51846;48.692;2.382;2023-10-31T02:04:58;22.73;;;11.45;;
65244;SDS011;51846;48.692;2.382;2023-10-31T02:07:24;22.05;;;12.75;;
65244;SDS011;51846;48.692;2.382;2023-10-31T02:09:49;23.20;;;12.13;;
65244;SDS011;51846;48.692;2.382;2023-10-31T02:12:31;22.58;;;12.35;;
65244;SDS011;51846;48.692;2.382;2023-10-31T02:15:00;17.33;;;8.63;;
65244;SDS011;51846;48.692;2.382;2023-10-31T02:17:25;17.83;;;8.40;;
65244;SDS011;51846;48.692;2.382;2023-10-31T02:19:51;17.40;;;6.30;;
65244;SDS011;51846;48.692;2.382;2023-10-31T02:22:16;17.35;;;5.32;;
65244;SDS011;51846;48.692;2.382;2023-10-31T02:24:42;8.60;;;3.80;;
65244;SDS011;51846;48.692;2.382;2023-10-31T02:27:07;20.55;;;3.80;;
65244;SDS011;51846;48.692;2.382;2023-10-31T02:29:32;9.95;;;3.17;;
65244;SDS011;51846;48.692;2.382;2023-10-31T02:31:58;12.50;;;3.80;;
65244;SDS011;51846;48.692;2.382;2023-10-31T02:34:23;10.18;;;3.60;;
65244;SDS011;51846;48.692;2.382;2023-10-31T02:36:48;14.18;;;3.67;;
65244;SDS011;51846;48.692;2.382;2023-10-31T02:39:14;14.75;;;4.18;;
65244;SDS011;51846;48.692;2.382;2023-10-31T02:41:39;10.98;;;3.70;;
65244;SDS011;51846;48.692;2.382;2023-10-31T02:44:04;15.85;;;3.85;;
65244;SDS011;51846;48.692;2.382;2023-10-31T02:46:30;12.45;;;3.50;;
65244;SDS011;51846;48.692;2.382;2023-10-31T02:48:55;14.55;;;4.43;;
65244;SDS011;51846;48.692;2.382;2023-10-31T02:51:20;16.20;;;4.10;;
65244;SDS011;51846;48.692;2.382;2023-10-31T02:53:46;12.07;;;4.43;;
65244;SDS011;51846;48.692;2.382;2023-10-31T02:56:11;14.60;;;4.20;;
65244;SDS011;51846;48.692;2.382;2023-10-31T02:58:37;14.85;;;4.53;;
65244;SDS011;51846;48.692;2.382;2023-10-31T03:01:02;18.65;;;4.70;;
65244;SDS011;51846;48.692;2.382;2023-10-31T03:03:27;13.75;;;4.32;;
65244;SDS011;51846;48.692;2.382;2023-10-31T03:05:53;19.70;;;4.97;;
65244;SDS011;51846;48.692;2.382;2023-10-31T03:08:19;13.02;;;4.60;;
65244;SDS011;51846;48.692;2.382;2023-10-31T03:10:46;12.77;;;4.30;;
65244;SDS011;51846;48.692;2.382;2023-10-31T03:13:15;15.02;;;4.60;;
65244;SDS011;51846;48.692;2.382;2023-10-31T03:15:41;11.35;;;4.32;;
65244;SDS011;51846;48.692;2.382;2023-10-31T03:18:06;16.58;;;4.90;;
65244;SDS011;51846;48.692;2.382;2023-10-31T03:20:31;14.13;;;4.50;;
65244;SDS011;51846;48.692;2.382;2023-10-31T03:22:57;12.32;;;4.40;;
65244;SDS011;51846;48.692;2.382;2023-10-31T03:25:22;11.70;;;4.60;;
65244;SDS011;51846;48.692;2.382;2023-10-31T03:27:48;15.85;;;4.53;;
65244;SDS011;51846;48.692;2.382;2023-10-31T03:30:13;11.88;;;3.63;;
65244;SDS011;51846;48.692;2.382;2023-10-31T03:32:38;18.05;;;4.10;;
65244;SDS011;51846;48.692;2.382;2023-10-31T03:35:04;9.93;;;3.75;;
65244;SDS011;51846;48.692;2.382;2023-10-31T03:37:29;13.95;;;3.80;;
65244;SDS011;51846;48.692;2.382;2023-10-31T03:39:55;14.98;;;3.53;;
65244;SDS011;51846;48.692;2.382;2023-10-31T03:42:20;11.55;;;3.33;;
65244;SDS011;51846;48.692;2.382;2023-10-31T03:44:45;14.60;;;3.58;;
65244;SDS011;51846;48.692;2.382;2023-10-31T03:47:11;10.85;;;3.40;;
65244;SDS011;51846;48.692;2.382;2023-10-31T03:49:39;10.55;;;3.20;;
65244;SDS011;51846;48.692;2.382;2023-10-31T03:52:05;10.88;;;3.45;;
65244;SDS011;51846;48.692;2.382;2023-10-31T03:54:31;11.40;;;3.67;;
65244;SDS011;51846;48.692;2.382;2023-10-31T03:56:56;11.48;;;3.20;;
65244;SDS011;51846;48.692;2.382;2023-10-31T03:59:21;11.98;;;3.00;;
65244;SDS011;51846;48.692;2.382;2023-10-31T04:01:47;13.30;;;3.25;;
65244;SDS011;51846;48.692;2.382;2023-10-31T04:04:12;9.05;;;2.60;;
65244;SDS011;51846;48.692;2.382;2023-10-31T04:06:37;11.10;;;2.45;;
65244;SDS011;51846;48.692;2.382;2023-10-31T04:09:05;12.25;;;2.90;;
65244;SDS011;51846;48.692;2.382;2023-10-31T04:11:31;8.00;;;2.80;;
65244;SDS011;51846;48.692;2.382;2023-10-31T04:13:57;10.10;;;2.80;;
65244;SDS011;51846;48.692;2.382;2023-10-31T04:16:22;12.88;;;3.00;;
65244;SDS011;51846;48.692;2.382;2023-10-31T04:18:48;10.98;;;2.80;;
65244;SDS011;51846;48.692;2.382;2023-10-31T04:21:13;9.20;;;3.47;;
65244;SDS011;51846;48.692;2.382;2023-10-31T04:23:39;12.60;;;3.05;;
65244;SDS011;51846;48.692;2.382;2023-10-31T04:26:05;9.63;;;3.25;;
65244;SDS011;51846;48.692;2.382;2023-10-31T04:28:30;12.32;;;3.03;;
65244;SDS011;51846;48.692;2.382;2023-10-31T04:30:55;11.77;;;3.20;;
65244;SDS011;51846;48.692;2.382;2023-10-31T04:33:21;13.27;;;3.38;;
65244;SDS011;51846;48.692;2.382;2023-10-31T04:35:46;15.18;;;3.28;;
65244;SDS011;51846;48.692;2.382;2023-10-31T04:38:12;14.50;;;3.60;;
65244;SDS011;51846;48.692;2.382;2023-10-31T04:40:37;12.50;;;3.50;;
65244;SDS011;51846;48.692;2.382;2023-10-31T04:43:02;12.85;;;3.22;;
65244;SDS011;51846;48.692;2.382;2023-10-31T04:45:28;8.07;;;3.13;;
65244;SDS011;51846;48.692;2.382;2023-10-31T04:47:53;12.23;;;3.22;;
65244;SDS011;51846;48.692;2.382;2023-10-31T04:50:18;14.73;;;3.90;;
65244;SDS011;51846;48.692;2.382;2023-10-31T04:52:44;12.07;;;3.95;;
65244;SDS011;51846;48.692;2.382;2023-10-31T04:55:09;12.10;;;3.80;;
65244;SDS011;51846;48.692;2.382;2023-10-31T04:57:34;17.67;;;5.30;;
65244;SDS011;51846;48.692;2.382;2023-10-31T05:00:00;14.52;;;4.40;;
65244;SDS011;51846;48.692;2.382;2023-10-31T05:02:25;17.17;;;4.72;;
65244;SDS011;51846;48.692;2.382;2023-10-31T05:04:51;20.70;;;5.72;;
65244;SDS011;51846;48.692;2.382;2023-10-31T05:07:17;13.40;;;4.25;;
65244;SDS011;51846;48.692;2.382;2023-10-31T05:09:42;12.60;;;4.53;;
65244;SDS011;51846;48.692;2.382;2023-10-31T05:12:08;12.65;;;4.45;;
65244;SDS011;51846;48.692;2.382;2023-10-31T05:14:33;20.33;;;4.85;;
65244;SDS011;51846;48.692;2.382;2023-10-31T05:16:58;11.70;;;4.82;;
65244;SDS011;51846;48.692;2.382;2023-10-31T05:19:24;11.93;;;4.40;;
65244;SDS011;51846;48.692;2.382;2023-10-31T05:21:49;17.77;;;4.50;;
65244;SDS011;51846;48.692;2.382;2023-10-31T05:24:14;16.88;;;4.75;;
65244;SDS011;51846;48.692;2.382;2023-10-31T05:26:40;21.02;;;4.50;;
65244;SDS011;51846;48.692;2.382;2023-10-31T05:29:07;16.38;;;4.65;;
65244;SDS011;51846;48.692;2.382;2023-10-31T05:31:33;18.98;;;4.40;;
65244;SDS011;51846;48.692;2.382;2023-10-31T05:33:58;16.33;;;4.53;;
65244;SDS011;51846;48.692;2.382;2023-10-31T05:36:24;17.83;;;4.43;;
65244;SDS011;51846;48.692;2.382;2023-10-31T05:38:50;16.45;;;4.32;;
65244;SDS011;51846;48.692;2.382;2023-10-31T05:41:16;15.40;;;3.85;;
65244;SDS011;51846;48.692;2.382;2023-10-31T05:43:42;16.25;;;4.30;;
65244;SDS011;51846;48.692;2.382;2023-10-31T05:46:07;12.63;;;3.70;;
65244;SDS011;51846;48.692;2.382;2023-10-31T05:48:39;13.55;;;4.20;;
65244;SDS011;51846;48.692;2.382;2023-10-31T05:51:10;11.93;;;3.53;;
65244;SDS011;51846;48.692;2.382;2023-10-31T05:53:38;15.38;;;3.58;;
65244;SDS011;51846;48.692;2.382;2023-10-31T05:56:04;8.23;;;2.92;;
65244;SDS011;51846;48.692;2.382;2023-10-31T05:58:32;12.55;;;3.05;;
65244;SDS011;51846;48.692;2.382;2023-10-31T06:00:57;12.65;;;3.10;;
65244;SDS011;51846;48.692;2.382;2023-10-31T06:03:23;6.80;;;2.75;;
65244;SDS011;51846;48.692;2.382;2023-10-31T06:05:48;11.63;;;3.20;;
65244;SDS011;51846;48.692;2.382;2023-10-31T06:08:13;10.50;;;2.97;;
65244;SDS011;51846;48.692;2.382;2023-10-31T06:10:39;11.65;;;2.67;;
65244;SDS011;51846;48.692;2.382;2023-10-31T06:13:04;9.35;;;2.55;;
65244;SDS011;51846;48.692;2.382;2023-10-31T06:15:29;11.27;;;2.40;;
65244;SDS011;51846;48.692;2.382;2023-10-31T06:17:55;13.65;;;2.92;;
65244;SDS011;51846;48.692;2.382;2023-10-31T06:20:20;8.52;;;2.40;;
65244;SDS011;51846;48.692;2.382;2023-10-31T06:22:46;9.40;;;2.30;;
65244;SDS011;51846;48.692;2.382;2023-10-31T06:25:11;11.40;;;3.03;;
65244;SDS011;51846;48.692;2.382;2023-10-31T06:27:36;8.45;;;2.08;;
65244;SDS011;51846;48.692;2.382;2023-10-31T06:30:02;9.35;;;2.42;;
65244;SDS011;51846;48.692;2.382;2023-10-31T06:32:27;9.55;;;2.45;;
65244;SDS011;51846;48.692;2.382;2023-10-31T06:34:53;7.90;;;2.40;;
65244;SDS011;51846;48.692;2.382;2023-10-31T06:37:18;7.50;;;2.85;;
65244;SDS011;51846;48.692;2.382;2023-10-31T06:39:43;7.85;;;2.15;;
65244;SDS011;51846;48.692;2.382;2023-10-31T06:42:09;8.10;;;2.15;;
65244;SDS011;51846;48.692;2.382;2023-10-31T06:44:34;11.68;;;3.00;;
65244;SDS011;51846;48.692;2.382;2023-10-31T06:47:00;9.88;;;2.65;;
65244;SDS011;51846;48.692;2.382;2023-10-31T06:49:25;12.18;;;2.78;;
65244;SDS011;51846;48.692;2.382;2023-10-31T06:51:51;11.13;;;2.80;;
65244;SDS011;51846;48.692;2.382;2023-10-31T06:54:16;7.55;;;2.60;;
65244;SDS011;51846;48.692;2.382;2023-10-31T06:56:42;10.65;;;2.50;;
65244;SDS011;51846;48.692;2.382;2023-10-31T06:59:07;6.55;;;2.40;;
65244;SDS011;51846;48.692;2.382;2023-10-31T07:01:33;13.60;;;2.70;;
65244;SDS011;51846;48.692;2.382;2023-10-31T07:03:59;10.15;;;2.90;;
65244;SDS011;51846;48.692;2.382;2023-10-31T07:06:24;10.40;;;2.70;;
65244;SDS011;51846;48.692;2.382;2023-10-31T07:08:50;12.95;;;2.80;;
65244;SDS011;51846;48.692;2.382;2023-10-31T07:11:15;8.38;;;2.70;;
65244;SDS011;51846;48.692;2.382;2023-10-31T07:13:41;11.20;;;2.78;;
65244;SDS011;51846;48.692;2.382;2023-10-31T07:16:06;13.32;;;3.17;;
65244;SDS011;51846;48.692;2.382;2023-10-31T07:18:32;8.68;;;2.65;;
65244;SDS011;51846;48.692;2.382;2023-10-31T07:20:57;12.10;;;3.20;;
65244;SDS011;51846;48.692;2.382;2023-10-31T07:23:23;14.63;;;2.70;;
65244;SDS011;51846;48.692;2.382;2023-10-31T07:25:48;8.20;;;2.70;;
65244;SDS011;51846;48.692;2.382;2023-10-31T07:28:14;15.65;;;2.83;;
65244;SDS011;51846;48.692;2.382;2023-10-31T07:30:39;12.60;;;2.90;;
65244;SDS011;51846;48.692;2.382;2023-10-31T07:33:05;9.18;;;2.55;;
65244;SDS011;51846;48.692;2.382;2023-10-31T07:35:30;13.15;;;2.95;;
65244;SDS011;51846;48.692;2.382;2023-10-31T07:37:55;10.80;;;3.10;;
65244;SDS011;51846;48.692;2.382;2023-10-31T07:40:21;10.90;;;3.20;;
65244;SDS011;51846;48.692;2.382;2023-10-31T07:42:46;12.15;;;3.08;;
65244;SDS011;51846;48.692;2.382;2023-10-31T07:45:11;11.18;;;3.08;;
65244;SDS011;51846;48.692;2.382;2023-10-31T07:47:37;8.52;;;2.80;;
65244;SDS011;51846;48.692;2.382;2023-10-31T07:50:03;6.82;;;2.67;;
65244;SDS011;51846;48.692;2.382;2023-10-31T07:52:29;9.98;;;2.75;;
65244;SDS011;51846;48.692;2.382;2023-10-31T07:54:55;10.25;;;3.00;;
65244;SDS011;51846;48.692;2.382;2023-10-31T07:57:20;11.23;;;2.70;;
65244;SDS011;51846;48.692;2.382;2023-10-31T07:59:45;13.80;;;3.00;;
65244;SDS011;51846;48.692;2.382;2023-10-31T08:02:11;9.95;;;3.05;;
65244;SDS011;51846;48.692;2.382;2023-10-31T08:04:36;8.50;;;2.60;;
65244;SDS011;51846;48.692;2.382;2023-10-31T08:07:01;12.07;;;2.92;;
65244;SDS011;51846;48.692;2.382;2023-10-31T08:09:27;10.68;;;2.92;;
65244;SDS011;51846;48.692;2.382;2023-10-31T08:11:52;10.18;;;2.65;;
65244;SDS011;51846;48.692;2.382;2023-10-31T08:14:18;11.05;;;2.92;;
65244;SDS011;51846;48.692;2.382;2023-10-31T08:16:44;9.10;;;2.67;;
65244;SDS011;51846;48.692;2.382;2023-10-31T08:19:09;9.40;;;2.50;;
65244;SDS011;51846;48.692;2.382;2023-10-31T08:21:35;10.55;;;2.42;;
65244;SDS011;51846;48.692;2.382;2023-10-31T08:24:02;9.27;;;2.60;;
65244;SDS011;51846;48.692;2.382;2023-10-31T08:26:28;7.30;;;2.55;;
65244;SDS011;51846;48.692;2.382;2023-10-31T08:28:54;10.57;;;2.80;;
65244;SDS011;51846;48.692;2.382;2023-10-31T08:31:19;11.43;;;2.63;;
65244;SDS011;51846;48.692;2.382;2023-10-31T08:33:45;8.68;;;2.60;;
65244;SDS011;51846;48.692;2.382;2023-10-31T08:36:10;10.25;;;2.75;;
65244;SDS011;51846;48.692;2.382;2023-10-31T08:38:36;12.02;;;2.95;;
65244;SDS011;51846;48.692;2.382;2023-10-31T08:41:01;7.38;;;2.65;;
65244;SDS011;51846;48.692;2.382;2023-10-31T08:43:27;9.18;;;2.85;;
65244;SDS011;51846;48.692;2.382;2023-10-31T08:45:52;7.93;;;2.63;;
65244;SDS011;51846;48.692;2.382;2023-10-31T08:48:18;9.27;;;3.05;;
65244;SDS011;51846;48.692;2.382;2023-10-31T08:50:43;9.77;;;3.00;;
65244;SDS011;51846;48.692;2.382;2023-10-31T08:53:09;9.85;;;2.60;;
65244;SDS011;51846;48.692;2.382;2023-10-31T08:55:35;11.80;;;2.40;;
65244;SDS011;51846;48.692;2.382;2023-10-31T08:58:00;10.57;;;2.60;;
65244;SDS011;51846;48.692;2.382;2023-10-31T09:00:25;7.40;;;2.40;;
65244;SDS011;51846;48.692;2.382;2023-10-31T09:02:53;7.35;;;2.03;;
65244;SDS011;51846;48.692;2.382;2023-10-31T09:05:18;9.95;;;2.40;;
65244;SDS011;51846;48.692;2.382;2023-10-31T09:07:44;9.35;;;2.28;;
65244;SDS011;51846;48.692;2.382;2023-10-31T09:10:11;6.88;;;2.03;;
65244;SDS011;51846;48.692;2.382;2023-10-31T09:12:36;6.35;;;2.00;;
65244;SDS011;51846;48.692;2.382;2023-10-31T09:15:02;12.73;;;2.33;;
65244;SDS011;51846;48.692;2.382;2023-10-31T09:17:27;9.00;;;2.38;;
65244;SDS011;51846;48.692;2.382;2023-10-31T09:19:53;5.38;;;2.00;;
65244;SDS011;51846;48.692;2.382;2023-10-31T09:22:19;10.80;;;2.15;;
65244;SDS011;51846;48.692;2.382;2023-10-31T09:24:45;6.35;;;2.00;;
65244;SDS011;51846;48.692;2.382;2023-10-31T09:27:10;11.68;;;2.45;;
65244;SDS011;51846;48.692;2.382;2023-10-31T09:29:35;7.57;;;2.00;;
65244;SDS011;51846;48.692;2.382;2023-10-31T09:32:04;9.35;;;2.10;;
65244;SDS011;51846;48.692;2.382;2023-10-31T09:34:31;8.68;;;2.53;;
65244;SDS011;51846;48.692;2.382;2023-10-31T09:36:56;5.97;;;2.10;;
65244;SDS011;51846;48.692;2.382;2023-10-31T09:39:22;10.45;;;2.30;;
65244;SDS011;51846;48.692;2.382;2023-10-31T09:41:48;8.00;;;1.95;;
65244;SDS011;51846;48.692;2.382;2023-10-31T09:44:13;14.38;;;2.00;;
65244;SDS011;51846;48.692;2.382;2023-10-31T09:46:39;7.25;;;2.17;;
65244;SDS011;51846;48.692;2.382;2023-10-31T09:49:05;7.43;;;1.98;;
65244;SDS011;51846;48.692;2.382;2023-10-31T09:51:31;7.18;;;1.98;;
65244;SDS011;51846;48.692;2.382;2023-10-31T09:53:57;11.93;;;2.25;;
65244;SDS011;51846;48.692;2.382;2023-10-31T09:56:24;7.90;;;2.20;;
65244;SDS011;51846;48.692;2.382;2023-10-31T09:58:50;3.97;;;1.73;;
65244;SDS011;51846;48.692;2.382;2023-10-31T10:01:16;10.15;;;2.00;;
65244;SDS011;51846;48.692;2.382;2023-10-31T10:03:42;10.05;;;1.98;;
65244;SDS011;51846;48.692;2.382;2023-10-31T10:06:08;9.10;;;1.88;;
65244;SDS011;51846;48.692;2.382;2023-10-31T10:08:38;5.72;;;1.80;;
65244;SDS011;51846;48.692;2.382;2023-10-31T10:11:04;5.00;;;1.60;;
65244;SDS011;51846;48.692;2.382;2023-10-31T10:13:30;6.30;;;2.17;;
65244;SDS011;51846;48.692;2.382;2023-10-31T10:15:55;5.82;;;1.60;;
65244;SDS011;51846;48.692;2.382;2023-10-31T10:18:24;8.50;;;2.03;;
65244;SDS011;51846;48.692;2.382;2023-10-31T10:21:01;8.75;;;1.88;;
65244;SDS011;51846;48.692;2.382;2023-10-31T10:23:28;5.93;;;2.15;;
65244;SDS011;51846;48.692;2.382;2023-10-31T10:25:54;13.82;;;2.25;;
65244;SDS011;51846;48.692;2.382;2023-10-31T10:28:20;8.35;;;1.95;;
65244;SDS011;51846;48.692;2.382;2023-10-31T10:30:49;6.43;;;1.73;;
65244;SDS011;51846;48.692;2.382;2023-10-31T10:33:15;7.03;;;1.80;;
65244;SDS011;51846;48.692;2.382;2023-10-31T10:35:41;6.65;;;1.75;;
65244;SDS011;51846;48.692;2.382;2023-10-31T10:38:09;4.85;;;1.60;;
65244;SDS011;51846;48.692;2.382;2023-10-31T10:40:37;5.13;;;1.88;;
65244;SDS011;51846;48.692;2.382;2023-10-31T10:43:05;6.35;;;1.85;;
65244;SDS011;51846;48.692;2.382;2023-10-31T10:45:36;8.20;;;1.90;;
65244;SDS011;51846;48.692;2.382;2023-10-31T10:48:11;6.45;;;1.75;;
65244;SDS011;51846;48.692;2.382;2023-10-31T10:50:38;4.00;;;1.40;;
65244;SDS011;51846;48.692;2.382;2023-10-31T10:53:09;6.65;;;2.00;;
65244;SDS011;51846;48.692;2.382;2023-10-31T10:55:44;5.90;;;1.48;;
65244;SDS011;51846;48.692;2.382;2023-10-31T11:00:57;5.07;;;1.70;;
65244;SDS011;51846;48.692;2.382;2023-10-31T11:03:24;3.83;;;1.60;;
65244;SDS011;51846;48.692;2.382;2023-10-31T11:05:50;5.80;;;1.85;;
65244;SDS011;51846;48.692;2.382;2023-10-31T11:08:15;3.65;;;1.40;;
65244;SDS011;51846;48.692;2.382;2023-10-31T11:10:41;3.38;;;1.45;;
65244;SDS011;51846;48.692;2.382;2023-10-31T11:13:08;5.38;;;1.60;;
65244;SDS011;51846;48.692;2.382;2023-10-31T11:15:33;5.10;;;1.60;;
65244;SDS011;51846;48.692;2.382;2023-10-31T11:17:59;6.03;;;1.48;;
65244;SDS011;51846;48.692;2.382;2023-10-31T11:20:27;4.32;;;1.40;;
65244;SDS011;51846;48.692;2.382;2023-10-31T11:22:54;5.15;;;1.42;;
65244;SDS011;51846;48.692;2.382;2023-10-31T11:25:25;6.05;;;1.58;;
65244;SDS011;51846;48.692;2.382;2023-10-31T11:27:50;5.55;;;1.45;;
65244;SDS011;51846;48.692;2.382;2023-10-31T11:30:20;6.03;;;1.80;;
65244;SDS011;51846;48.692;2.382;2023-10-31T11:33:21;4.90;;;1.60;;
65244;SDS011;51846;48.692;2.382;2023-10-31T11:35:40;7.05;;;1.83;;
65244;SDS011;51846;48.692;2.382;2023-10-31T11:38:09;5.53;;;1.80;;
65244;SDS011;51846;48.692;2.382;2023-10-31T11:40:58;8.02;;;1.80;;
65244;SDS011;51846;48.692;2.382;2023-10-31T11:43:26;4.80;;;1.50;;
65244;SDS011;51846;48.692;2.382;2023-10-31T11:46:01;6.32;;;1.98;;
65244;SDS011;51846;48.692;2.382;2023-10-31T11:51:21;8.23;;;1.70;;
65244;SDS011;51846;48.692;2.382;2023-10-31T11:53:48;4.57;;;1.60;;
65244;SDS011;51846;48.692;2.382;2023-10-31T11:56:14;7.20;;;1.75;;
65244;SDS011;51846;48.692;2.382;2023-10-31T11:58:40;5.25;;;1.48;;
65244;SDS011;51846;48.692;2.382;2023-10-31T12:01:09;7.40;;;1.63;;
65244;SDS011;51846;48.692;2.382;2023-10-31T12:03:39;4.80;;;1.73;;
65244;SDS011;51846;48.692;2.382;2023-10-31T12:06:06;9.48;;;2.10;;
65244;SDS011;51846;48.692;2.382;2023-10-31T12:08:36;7.00;;;2.13;;
65244;SDS011;51846;48.692;2.382;2023-10-31T12:11:12;7.38;;;1.60;;
65244;SDS011;51846;48.692;2.382;2023-10-31T12:13:41;8.40;;;1.90;;
65244;SDS011;51846;48.692;2.382;2023-10-31T12:16:16;6.22;;;1.52;;
65244;SDS011;51846;48.692;2.382;2023-10-31T12:18:43;5.45;;;1.60;;
65244;SDS011;51846;48.692;2.382;2023-10-31T12:21:08;5.97;;;1.70;;
65244;SDS011;51846;48.692;2.382;2023-10-31T12:23:35;6.38;;;1.75;;
65244;SDS011;51846;48.692;2.382;2023-10-31T12:26:01;6.05;;;1.60;;
65244;SDS011;51846;48.692;2.382;2023-10-31T12:28:27;6.35;;;1.60;;
65244;SDS011;51846;48.692;2.382;2023-10-31T12:30:55;4.90;;;1.52;;
65244;SDS011;51846;48.692;2.382;2023-10-31T12:33:21;7.97;;;1.73;;
65244;SDS011;51846;48.692;2.382;2023-10-31T12:35:50;4.55;;;1.40;;
65244;SDS011;51846;48.692;2.382;2023-10-31T12:38:18;7.25;;;1.63;;
65244;SDS011;51846;48.692;2.382;2023-10-31T12:40:44;4.97;;;1.30;;
65244;SDS011;51846;48.692;2.382;2023-10-31T12:43:10;4.38;;;1.50;;
65244;SDS011;51846;48.692;2.382;2023-10-31T12:45:36;5.93;;;1.50;;
65244;SDS011;51846;48.692;2.382;2023-10-31T12:48:05;6.85;;;1.52;;
65244;SDS011;51846;48.692;2.382;2023-10-31T12:50:33;6.85;;;1.88;;
65244;SDS011;51846;48.692;2.382;2023-10-31T12:52:59;7.50;;;2.00;;
65244;SDS011;51846;48.692;2.382;2023-10-31T12:55:26;6.38;;;1.50;;
65244;SDS011;51846;48.692;2.382;2023-10-31T12:57:52;7.05;;;1.50;;
65244;SDS011;51846;48.692;2.382;2023-10-31T13:00:19;5.00;;;1.70;;
65244;SDS011;51846;48.692;2.382;2023-10-31T13:05:26;7.22;;;1.52;;
65244;SDS011;51846;48.692;2.382;2023-10-31T13:07:53;5.70;;;1.52;;
65244;SDS011;51846;48.692;2.382;2023-10-31T13:10:21;7.28;;;1.70;;
65244;SDS011;51846;48.692;2.382;2023-10-31T13:12:48;8.45;;;1.67;;
65244;SDS011;51846;48.692;2.382;2023-10-31T13:15:17;4.53;;;1.35;;
65244;SDS011;51846;48.692;2.382;2023-10-31T13:17:44;4.53;;;1.50;;
65244;SDS011;51846;48.692;2.382;2023-10-31T13:20:11;9.05;;;1.77;;
65244;SDS011;51846;48.692;2.382;2023-10-31T13:22:37;7.45;;;1.83;;
65244;SDS011;51846;48.692;2.382;2023-10-31T13:25:04;7.63;;;1.52;;
65244;SDS011;51846;48.692;2.382;2023-10-31T13:27:32;11.88;;;2.10;;
65244;SDS011;51846;48.692;2.382;2023-10-31T13:29:58;10.13;;;1.70;;
65244;SDS011;51846;48.692;2.382;2023-10-31T13:32:24;8.23;;;1.85;;
65244;SDS011;51846;48.692;2.382;2023-10-31T13:34:49;7.30;;;1.60;;
65244;SDS011;51846;48.692;2.382;2023-10-31T13:37:14;7.38;;;1.85;;
65244;SDS011;51846;48.692;2.382;2023-10-31T13:39:40;7.10;;;1.90;;
65244;SDS011;51846;48.692;2.382;2023-10-31T13:42:05;6.10;;;1.50;;
65244;SDS011;51846;48.692;2.382;2023-10-31T13:44:31;6.50;;;1.60;;
65244;SDS011;51846;48.692;2.382;2023-10-31T13:46:56;8.68;;;1.90;;
65244;SDS011;51846;48.692;2.382;2023-10-31T13:49:22;11.13;;;1.70;;
65244;SDS011;51846;48.692;2.382;2023-10-31T13:51:47;7.32;;;1.60;;
65244;SDS011;51846;48.692;2.382;2023-10-31T13:54:15;8.85;;;1.95;;
65244;SDS011;51846;48.692;2.382;2023-10-31T13:56:40;13.60;;;2.22;;
65244;SDS011;51846;48.692;2.382;2023-10-31T13:59:06;8.93;;;1.90;;
65244;SDS011;51846;48.692;2.382;2023-10-31T14:01:32;8.90;;;1.80;;
65244;SDS011;51846;48.692;2.382;2023-10-31T14:03:57;9.48;;;2.10;;
65244;SDS011;51846;48.692;2.382;2023-10-31T14:06:22;9.45;;;2.08;;
65244;SDS011;51846;48.692;2.382;2023-10-31T14:08:50;9.52;;;1.90;;
65244;SDS011;51846;48.692;2.382;2023-10-31T14:11:15;8.25;;;1.70;;
65244;SDS011;51846;48.692;2.382;2023-10-31T14:13:40;7.25;;;1.70;;
65244;SDS011;51846;48.692;2.382;2023-10-31T14:16:07;8.55;;;1.80;;
65244;SDS011;51846;48.692;2.382;2023-10-31T14:18:32;7.78;;;1.92;;
65244;SDS011;51846;48.692;2.382;2023-10-31T14:20:58;10.57;;;2.13;;
65244;SDS011;51846;48.692;2.382;2023-10-31T14:23:24;7.75;;;1.90;;
65244;SDS011;51846;48.692;2.382;2023-10-31T14:25:49;7.68;;;2.05;;
65244;SDS011;51846;48.692;2.382;2023-10-31T14:28:15;8.73;;;2.25;;
65244;SDS011;51846;48.692;2.382;2023-10-31T14:30:40;9.63;;;1.70;;
65244;SDS011;51846;48.692;2.382;2023-10-31T14:33:05;8.88;;;1.98;;
65244;SDS011;51846;48.692;2.382;2023-10-31T14:35:31;12.07;;;1.88;;
65244;SDS011;51846;48.692;2.382;2023-10-31T14:37:56;10.52;;;2.15;;
65244;SDS011;51846;48.692;2.382;2023-10-31T14:40:21;10.48;;;1.83;;
65244;SDS011;51846;48.692;2.382;2023-10-31T14:42:47;11.45;;;1.90;;